Time;durP1;ratioP1;P1;durP2;ratioP2;P2;SDS_P1;SDS_P2;PMS_P1;PMS_P2;Temp;Humidity;BMP_temperature;BMP_pressure;BME280_temperature;BME280_humidity;BME280_pressure;Samples;Min_cycle;Max_cycle;Signal;HPM_P1;HPM_P2
2021/12/02 00:00:51;;;;;;;2.60;2.20;;;16.60;59.20;17.80;98990.00;;;;4968816;28;20181;-41
2021/12/02 00:03:17;;;;;;;4.07;2.30;;;16.60;59.10;17.70;99002.00;;;;4969198;28;20205;-42
2021/12/02 00:05:43;;;;;;;8.33;2.87;;;16.60;59.00;17.70;98996.00;;;;4969104;28;20168;-41
2021/12/02 00:08:08;;;;;;;3.73;2.30;;;16.60;58.90;17.70;98998.00;;;;4968954;28;20675;-41
2021/12/02 00:10:35;;;;;;;3.33;2.00;;;16.60;58.90;17.70;98995.00;;;;4968884;28;20630;-41
2021/12/02 00:13:01;;;;;;;2.87;2.20;;;16.50;58.90;17.70;98989.00;;;;4968694;28;20662;-41
2021/12/02 00:15:53;;;;;;;2.47;2.07;;;16.50;58.90;17.70;98992.00;;;;4968792;28;20179;-41
2021/12/02 00:18:41;;;;;;;4.67;2.40;;;16.50;58.90;17.60;98999.00;;;;4969070;28;20683;-41
2021/12/02 00:21:05;;;;;;;2.83;2.20;;;16.50;59.00;17.60;99003.00;;;;4968540;28;20179;-41
2021/12/02 00:24:00;;;;;;;4.63;2.27;;;16.50;59.00;17.60;99011.00;;;;4951633;28;20212;-41
2021/12/02 00:26:26;;;;;;;4.80;2.20;;;16.40;58.90;17.60;98999.00;;;;4967933;28;20212;-43
2021/12/02 00:28:57;;;;;;;3.47;2.37;;;16.40;58.70;17.50;98997.00;;;;4959530;28;20291;-40
2021/12/02 00:31:25;;;;;;;3.83;2.40;;;16.50;58.80;17.50;99000.00;;;;4948300;29;20647;-40
2021/12/02 00:33:57;;;;;;;3.77;2.27;;;16.40;58.70;17.50;99004.00;;;;4949416;28;20184;-40
2021/12/02 00:36:25;;;;;;;5.00;2.50;;;16.40;58.70;17.50;98993.00;;;;4949605;28;20698;-40
2021/12/02 00:38:51;;;;;;;3.83;2.30;;;16.40;58.70;17.50;98992.00;;;;4949276;28;20272;-40
2021/12/02 00:41:27;;;;;;;3.13;2.30;;;16.40;58.70;17.50;99007.00;;;;4947970;29;20771;-41
2021/12/02 00:43:55;;;;;;;4.93;2.50;;;16.40;58.70;17.40;99000.00;;;;4949711;28;20193;-40
2021/12/02 00:46:23;;;;;;;3.67;2.30;;;16.40;58.70;17.40;98999.00;;;;4949268;28;20181;-41
2021/12/02 00:48:49;;;;;;;3.37;2.30;;;16.30;58.60;17.40;99008.00;;;;4949218;28;20276;-41
2021/12/02 00:51:16;;;;;;;2.87;2.10;;;16.40;58.70;17.40;99006.00;;;;4948322;28;20688;-40
2021/12/02 00:53:46;;;;;;;3.30;2.30;;;16.30;58.60;17.40;99006.00;;;;4949224;28;20184;-40
2021/12/02 00:56:16;;;;;;;3.80;2.43;;;16.30;58.60;17.40;99014.00;;;;4949671;28;20628;-40
2021/12/02 00:58:45;;;;;;;2.40;2.13;;;16.30;58.60;17.40;99022.00;;;;4955169;28;20291;-40
2021/12/02 01:01:11;;;;;;;3.47;2.17;;;16.30;58.60;17.40;99010.00;;;;4948954;28;20182;-40
2021/12/02 01:03:37;;;;;;;3.67;2.30;;;16.30;58.50;17.30;99001.00;;;;4948150;28;20209;-42
2021/12/02 01:06:05;;;;;;;3.27;2.13;;;16.30;58.60;17.30;99004.00;;;;4968353;28;20647;-42
2021/12/02 01:08:35;;;;;;;3.37;2.53;;;16.20;58.60;17.30;99002.00;;;;4968476;28;20200;-41
2021/12/02 01:11:01;;;;;;;3.03;2.40;;;16.20;58.60;17.30;99005.00;;;;4967811;28;20171;-41
2021/12/02 01:13:27;;;;;;;3.13;2.30;;;16.20;58.70;17.30;99016.00;;;;4968390;28;20173;-41
2021/12/02 01:15:53;;;;;;;3.07;2.33;;;16.20;58.50;17.30;99015.00;;;;4968194;28;20177;-41
2021/12/02 01:18:18;;;;;;;3.77;2.40;;;16.20;58.50;17.30;99020.00;;;;4968171;28;20217;-41
2021/12/02 01:20:46;;;;;;;3.20;2.23;;;16.20;58.50;17.20;99017.00;;;;4968029;28;20196;-43
2021/12/02 01:23:12;;;;;;;2.70;2.40;;;16.20;58.50;17.20;99012.00;;;;4966462;28;20196;-40
2021/12/02 01:25:37;;;;;;;4.07;2.40;;;16.10;59.10;17.20;99012.00;;;;4950882;28;20518;-41
2021/12/02 01:28:03;;;;;;;3.33;2.40;;;16.10;58.80;17.20;99017.00;;;;4951127;28;20189;-41
2021/12/02 01:30:30;;;;;;;2.90;2.40;;;16.10;58.50;17.20;99018.00;;;;4968036;28;20169;-41
2021/12/02 01:33:06;;;;;;;3.53;2.30;;;16.10;58.70;17.20;99015.00;;;;4967877;28;20165;-42
2021/12/02 01:35:33;;;;;;;2.60;2.13;;;16.10;58.50;17.20;99018.00;;;;4967874;28;20176;-41
2021/12/02 01:39:14;;;;;;;3.30;2.40;;;16.10;58.60;17.10;99029.00;;;;4968238;28;20557;-42
2021/12/02 01:41:52;;;;;;;3.23;2.30;;;16.00;58.40;17.10;99028.00;;;;4967609;28;20550;-42
2021/12/02 01:44:19;;;;;;;3.47;2.60;;;16.00;58.40;17.10;99020.00;;;;4968269;28;20181;-41
2021/12/02 01:46:50;;;;;;;3.80;2.40;;;16.00;58.40;17.10;99019.00;;;;4968147;28;20180;-41
2021/12/02 01:49:18;;;;;;;3.37;2.20;;;16.00;58.60;17.10;99013.00;;;;4966765;28;20560;-41
2021/12/02 01:52:40;;;;;;;3.60;2.17;;;16.00;58.50;17.10;99030.00;;;;4967709;28;20158;-41
2021/12/02 01:55:09;;;;;;;3.20;2.20;;;15.90;58.40;17.00;99026.00;;;;4966550;28;20173;-40
2021/12/02 01:57:43;;;;;;;3.67;2.30;;;16.00;58.60;17.00;99020.00;;;;4967756;28;20272;-41
2021/12/02 02:00:15;;;;;;;3.03;2.30;;;16.00;58.60;17.00;99011.00;;;;4967931;28;20153;-40
2021/12/02 02:02:41;;;;;;;2.70;2.13;;;15.90;58.50;17.00;99026.00;;;;4969616;28;20169;-42
2021/12/02 02:05:12;;;;;;;3.73;2.43;;;15.90;58.60;17.00;99025.00;;;;4971545;28;20208;-40
2021/12/02 02:07:53;;;;;;;2.60;2.23;;;15.80;58.60;17.00;99007.00;;;;4971324;28;20185;-41
2021/12/02 02:10:19;;;;;;;3.27;2.40;;;15.80;58.60;17.00;99023.00;;;;4953495;28;20812;-40
2021/12/02 02:12:45;;;;;;;3.43;2.40;;;15.80;58.70;17.00;99034.00;;;;4971691;28;20169;-40
2021/12/02 02:15:10;;;;;;;2.43;2.20;;;15.80;58.70;16.90;99029.00;;;;4971878;28;20172;-40
2021/12/02 02:17:47;;;;;;;3.20;2.30;;;15.80;58.60;16.90;99027.00;;;;4971493;28;20228;-40
2021/12/02 02:20:14;;;;;;;3.13;2.40;;;15.80;58.60;16.90;99028.00;;;;4970971;28;20208;-40
2021/12/02 02:22:40;;;;;;;3.23;2.50;;;15.80;58.60;16.90;99023.00;;;;4970311;28;20947;-40
2021/12/02 02:25:12;;;;;;;3.17;2.40;;;15.70;58.60;16.90;99019.00;;;;4971384;28;20193;-39
2021/12/02 02:27:38;;;;;;;3.43;2.47;;;15.70;58.90;16.90;99023.00;;;;4970344;28;20193;-40
2021/12/02 02:30:04;;;;;;;3.67;2.50;;;15.70;59.20;16.90;99018.00;;;;4971317;28;20668;-40
2021/12/02 02:32:33;;;;;;;3.03;2.23;;;15.60;59.10;16.80;99032.00;;;;4971462;28;20184;-40
2021/12/02 02:34:59;;;;;;;2.83;2.37;;;15.60;59.10;16.80;99019.00;;;;4971509;28;20196;-40
2021/12/02 02:37:29;;;;;;;3.93;2.30;;;15.60;59.20;16.80;99009.00;;;;4970980;28;20860;-40
2021/12/02 02:39:54;;;;;;;2.97;2.20;;;15.60;59.20;16.80;99012.00;;;;4971225;28;20154;-40
2021/12/02 02:42:23;;;;;;;3.60;2.30;;;15.50;59.30;16.80;99014.00;;;;4971168;28;20184;-40
2021/12/02 02:44:49;;;;;;;3.07;2.40;;;15.60;59.30;16.70;99003.00;;;;4970793;28;20201;-41
2021/12/02 02:47:15;;;;;;;2.40;2.20;;;15.50;59.40;16.70;99006.00;;;;4970930;28;20184;-41
2021/12/02 02:49:40;;;;;;;2.83;2.13;;;15.50;59.30;16.70;99006.00;;;;4970836;28;20526;-41
2021/12/02 02:52:06;;;;;;;3.13;2.27;;;15.50;59.40;16.70;99005.00;;;;4970817;28;20196;-41
2021/12/02 02:54:32;;;;;;;2.73;2.23;;;15.50;59.40;16.70;99009.00;;;;4970851;28;20181;-41
2021/12/02 02:57:04;;;;;;;2.63;2.13;;;15.50;59.40;16.70;99012.00;;;;4953568;28;20172;-41
2021/12/02 02:59:44;;;;;;;2.73;2.00;;;15.50;59.40;16.70;99014.00;;;;4970751;28;20227;-41
2021/12/02 03:04:46;;;;;;;2.63;2.33;;;15.50;59.40;16.70;99009.00;;;;4974751;28;20197;-41
2021/12/02 03:07:21;;;;;;;2.83;2.17;;;15.40;59.30;16.60;99019.00;;;;4956658;28;20165;-41
2021/12/02 03:09:52;;;;;;;2.53;2.20;;;15.40;59.30;16.60;99020.00;;;;4969399;28;20631;-41
2021/12/02 03:12:29;;;;;;;4.77;2.40;;;15.40;59.30;16.60;99018.00;;;;4968993;28;20177;-41
2021/12/02 03:17:32;;;;;;;2.73;2.20;;;15.40;59.00;16.60;99027.00;;;;4970935;28;20169;-41
2021/12/02 03:19:58;;;;;;;3.10;2.30;;;15.50;59.00;16.60;99021.00;;;;4970489;28;20184;-41
2021/12/02 03:22:23;;;;;;;3.13;2.20;;;15.50;58.90;16.60;99017.00;;;;4970588;28;20297;-41
2021/12/02 03:24:49;;;;;;;3.03;2.30;;;15.50;58.80;16.60;99023.00;;;;4972413;28;20565;-40
2021/12/02 03:27:15;;;;;;;2.77;2.07;;;15.40;58.70;16.60;99018.00;;;;4967200;28;20180;-40
2021/12/02 03:29:41;;;;;;;2.70;2.20;;;15.40;59.50;16.50;99016.00;;;;4969775;28;20204;-40
2021/12/02 03:32:10;;;;;;;2.87;2.20;;;15.40;58.70;16.50;99019.00;;;;4970228;28;20680;-40
2021/12/02 03:34:39;;;;;;;2.43;2.10;;;15.40;58.70;16.50;99022.00;;;;4970443;28;20173;-41
2021/12/02 03:37:05;;;;;;;2.90;2.30;;;15.40;58.80;16.50;99029.00;;;;4970052;28;20192;-41
2021/12/02 03:39:30;;;;;;;3.00;2.30;;;15.40;58.70;16.50;99020.00;;;;4969740;28;20196;-41
2021/12/02 03:41:56;;;;;;;3.00;2.20;;;15.40;58.70;16.50;99021.00;;;;4969869;28;20305;-44
2021/12/02 03:44:23;;;;;;;2.50;2.30;;;15.40;58.90;16.50;99017.00;;;;4968848;28;20197;-40
2021/12/02 03:46:49;;;;;;;2.80;2.20;;;15.40;58.70;16.50;99005.00;;;;4970658;28;20756;-41
2021/12/02 03:49:14;;;;;;;2.30;2.10;;;15.40;58.60;16.50;99023.00;;;;4970031;28;20287;-40
2021/12/02 03:51:40;;;;;;;2.40;2.00;;;15.30;58.70;16.40;99025.00;;;;4969873;28;20169;-40
2021/12/02 03:54:06;;;;;;;2.37;2.10;;;15.30;58.60;16.40;99032.00;;;;4969923;28;20161;-40
2021/12/02 03:56:33;;;;;;;3.10;2.10;;;15.30;58.70;16.40;99021.00;;;;4969846;28;20188;-40
2021/12/02 03:58:58;;;;;;;3.37;2.20;;;15.30;58.70;16.50;99025.00;;;;4969079;28;20205;-40
2021/12/02 04:01:24;;;;;;;3.30;2.40;;;15.30;58.60;16.40;99024.00;;;;4969793;28;20200;-41
2021/12/02 04:03:50;;;;;;;3.07;2.20;;;15.30;58.70;16.40;99020.00;;;;4960987;28;20197;-40
2021/12/02 04:06:16;;;;;;;3.83;2.33;;;15.30;58.60;16.40;99015.00;;;;4968989;28;20177;-41
2021/12/02 04:16:27;;;;;;;2.37;2.13;;;15.20;58.60;16.30;99021.00;;;;4968893;28;20177;-40
2021/12/02 04:18:53;;;;;;;2.20;2.00;;;15.20;58.60;16.30;99025.00;;;;4960345;28;20978;-43
2021/12/02 04:21:18;;;;;;;3.03;2.10;;;15.20;58.60;16.30;99025.00;;;;4969143;28;20313;-40
2021/12/02 04:23:44;;;;;;;2.53;2.10;;;15.20;58.60;16.30;99028.00;;;;4963152;28;20762;-41
2021/12/02 04:26:10;;;;;;;2.20;2.00;;;15.20;58.60;16.30;99031.00;;;;4966091;28;20520;-41
2021/12/02 04:28:36;;;;;;;3.83;2.00;;;15.10;58.60;16.30;99022.00;;;;4967267;28;20189;-41
2021/12/02 04:31:01;;;;;;;3.17;1.70;;;15.10;59.10;16.30;99021.00;;;;4968710;28;20851;-41
2021/12/02 04:33:29;;;;;;;5.53;2.30;;;15.00;58.90;16.30;99023.00;;;;4967636;28;20169;-41
2021/12/02 04:35:55;;;;;;;5.47;2.20;;;15.10;59.20;16.20;99018.00;;;;4969144;28;20176;-41
2021/12/02 04:38:21;;;;;;;4.13;2.03;;;15.00;59.20;16.20;98986.00;;;;4967431;28;20617;-41
2021/12/02 04:43:17;;;;;;;5.10;2.00;;;15.10;58.90;16.20;99036.00;;;;4951342;28;20240;-40
2021/12/02 04:45:43;;;;;;;5.43;2.13;;;15.10;59.10;16.20;99035.00;;;;4956696;28;20802;-40
2021/12/02 04:48:09;;;;;;;4.33;2.00;;;15.10;59.00;16.20;99033.00;;;;4953029;28;20605;-40
2021/12/02 04:50:35;;;;;;;3.97;1.90;;;15.10;59.00;16.20;99041.00;;;;4979461;28;20176;-40
2021/12/02 04:53:00;;;;;;;5.63;2.00;;;15.00;59.00;16.20;99040.00;;;;4987102;28;20303;-40
2021/12/02 04:55:26;;;;;;;2.30;2.00;;;15.10;59.00;16.20;99037.00;;;;4988154;28;20172;-40
2021/12/02 04:57:52;;;;;;;3.27;2.07;;;15.00;58.90;16.20;99037.00;;;;4987941;28;20247;-40
2021/12/02 05:00:17;;;;;;;3.10;1.70;;;15.10;59.00;15.90;99032.00;;;;4987775;28;20226;-40
2021/12/02 05:02:44;;;;;;;2.80;1.90;;;15.00;59.00;16.10;99034.00;;;;4987579;28;20193;-40
2021/12/02 05:05:10;;;;;;;3.13;2.10;;;15.00;59.00;16.10;99036.00;;;;4975319;28;20298;-40
2021/12/02 05:07:35;;;;;;;3.50;2.00;;;15.00;59.00;16.10;99031.00;;;;4968647;28;20698;-40
2021/12/02 05:10:03;;;;;;;2.77;1.80;;;15.00;59.10;16.10;99028.00;;;;4968424;28;20287;-40
2021/12/02 05:12:28;;;;;;;4.90;1.90;;;15.00;59.10;16.10;99039.00;;;;4968165;28;20193;-40
2021/12/02 05:14:54;;;;;;;11.37;2.17;;;15.00;59.10;16.10;99044.00;;;;4968606;28;20251;-40
2021/12/02 05:17:20;;;;;;;3.77;1.83;;;15.00;59.60;16.10;99048.00;;;;4967928;28;20780;-40
2021/12/02 05:19:46;;;;;;;4.00;2.00;;;14.90;59.40;16.10;99043.00;;;;4968273;28;20165;-40
2021/12/02 05:22:12;;;;;;;6.83;2.00;;;14.90;59.40;16.10;99034.00;;;;4968065;28;20221;-40
2021/12/02 05:24:37;;;;;;;3.30;1.83;;;14.90;59.60;16.10;99036.00;;;;4968239;28;20655;-41
2021/12/02 05:27:03;;;;;;;5.47;1.90;;;14.90;59.60;16.10;99060.00;;;;4968056;28;20169;-40
2021/12/02 05:29:29;;;;;;;3.93;2.20;;;14.90;59.70;16.00;99058.00;;;;4967559;28;20211;-41
2021/12/02 05:31:55;;;;;;;4.37;2.10;;;14.90;59.60;16.00;99052.00;;;;4971286;28;20227;-40
2021/12/02 05:34:20;;;;;;;3.57;1.97;;;14.90;59.70;16.00;99053.00;;;;4971149;28;20173;-40
2021/12/02 05:36:46;;;;;;;3.77;1.43;;;14.90;59.40;16.00;99042.00;;;;4971726;28;20263;-41
2021/12/02 05:39:12;;;;;;;3.47;1.70;;;14.80;59.40;16.00;99052.00;;;;4971596;28;20176;-41
2021/12/02 05:41:37;;;;;;;2.10;1.53;;;14.90;59.50;16.00;99051.00;;;;4971589;28;20259;-41
2021/12/02 05:44:03;;;;;;;3.67;1.77;;;14.90;60.10;16.00;99047.00;;;;4970949;28;20208;-41
2021/12/02 05:46:29;;;;;;;3.40;1.80;;;14.90;59.40;16.00;99040.00;;;;4971832;28;20185;-41
2021/12/02 05:48:55;;;;;;;2.50;1.77;;;14.90;59.50;16.00;99047.00;;;;4954813;28;20181;-41
2021/12/02 05:51:21;;;;;;;3.27;1.80;;;14.80;59.40;16.00;99044.00;;;;4951874;28;20201;-41
2021/12/02 05:53:46;;;;;;;1.87;1.70;;;14.80;59.40;16.00;99060.00;;;;4951869;28;20224;-41
2021/12/02 05:56:12;;;;;;;1.80;1.70;;;14.80;59.50;16.00;99059.00;;;;4952786;28;20174;-41
2021/12/02 05:58:38;;;;;;;2.03;1.70;;;14.90;59.60;15.90;99053.00;;;;4952004;29;20185;-41
2021/12/02 06:01:04;;;;;;;2.27;1.87;;;14.80;59.30;16.00;99064.00;;;;4952228;29;20233;-42
2021/12/02 06:03:30;;;;;;;3.80;1.70;;;14.80;59.40;16.00;99053.00;;;;4951613;28;20257;-41
2021/12/02 06:05:56;;;;;;;3.37;1.60;;;14.80;59.50;15.90;99053.00;;;;4952177;28;20260;-41
2021/12/02 06:08:22;;;;;;;1.77;1.50;;;14.80;59.60;15.90;99051.00;;;;4951496;28;20185;-41
2021/12/02 06:10:48;;;;;;;2.30;1.60;;;14.80;59.60;15.90;99064.00;;;;4951837;28;20174;-42
2021/12/02 06:13:13;;;;;;;2.57;1.63;;;14.70;59.70;15.90;99053.00;;;;4952330;28;20181;-41
2021/12/02 06:15:39;;;;;;;1.73;1.60;;;14.70;59.70;15.90;99057.00;;;;4953235;28;20264;-41
2021/12/02 06:18:05;;;;;;;2.00;1.60;;;14.70;59.60;15.90;99066.00;;;;4952395;28;20549;-41
2021/12/02 06:20:30;;;;;;;1.70;1.60;;;14.70;59.60;15.80;99062.00;;;;4951741;29;20170;-42
2021/12/02 06:22:56;;;;;;;2.10;1.60;;;14.70;59.60;15.90;99075.00;;;;4951705;29;20668;-41
2021/12/02 06:27:52;;;;;;;1.97;1.50;;;14.70;59.70;15.80;99073.00;;;;4951935;28;20170;-41
2021/12/02 06:30:18;;;;;;;1.70;1.60;;;14.70;59.50;15.80;99080.00;;;;4951759;28;20170;-41
2021/12/02 06:32:43;;;;;;;1.87;1.57;;;14.70;59.60;15.80;99076.00;;;;4951091;28;20245;-41
2021/12/02 06:35:10;;;;;;;2.60;1.37;;;14.70;59.60;15.80;99078.00;;;;4956384;28;20178;-41
2021/12/02 06:37:35;;;;;;;1.60;1.50;;;14.70;59.60;15.80;99085.00;;;;4951612;28;20177;-41
2021/12/02 06:40:01;;;;;;;1.63;1.40;;;14.70;59.50;15.80;99084.00;;;;4951970;28;20260;-42
2021/12/02 06:42:27;;;;;;;1.63;1.30;;;14.70;59.60;15.80;99087.00;;;;4951412;28;20667;-42
2021/12/02 06:44:52;;;;;;;1.53;1.43;;;14.60;59.40;15.80;99087.00;;;;4951204;29;20209;-41
2021/12/02 06:47:20;;;;;;;5.90;1.60;;;14.70;59.60;15.80;99091.00;;;;4954445;28;20192;-41
2021/12/02 06:49:46;;;;;;;2.27;1.40;;;14.60;60.20;15.80;99043.00;;;;4970475;28;20173;-42
2021/12/02 06:52:15;;;;;;;1.97;1.40;;;14.60;60.40;15.70;99088.00;;;;4970253;28;20255;-42
2021/12/02 06:54:40;;;;;;;2.27;1.40;;;14.60;60.30;15.70;99095.00;;;;4970399;28;20584;-41
2021/12/02 06:57:07;;;;;;;2.27;1.40;;;14.60;60.20;15.70;99103.00;;;;4970219;28;20184;-42
2021/12/02 06:59:32;;;;;;;2.13;1.50;;;14.70;60.30;15.70;99105.00;;;;4970368;28;20180;-41
2021/12/02 07:01:58;;;;;;;3.30;1.53;;;14.90;60.10;15.80;99100.00;;;;4970221;28;20193;-41
2021/12/02 07:04:24;;;;;;;5.47;1.70;;;15.10;60.10;15.90;99107.00;;;;4969972;28;20205;-42
2021/12/02 07:06:50;;;;;;;4.40;1.40;;;15.40;59.90;16.00;99110.00;;;;4970583;28;20208;-42
2021/12/02 07:09:15;;;;;;;1.83;1.50;;;15.60;59.60;16.10;99111.00;;;;4970027;28;20293;-41
2021/12/02 07:11:42;;;;;;;1.37;1.23;;;15.90;59.30;16.30;99114.00;;;;4970306;28;20228;-41
2021/12/02 07:14:12;;;;;;;2.90;1.43;;;16.10;59.00;16.40;99118.00;;;;4969072;28;20188;-41
2021/12/02 07:16:39;;;;;;;3.47;1.50;;;16.40;58.70;16.60;99108.00;;;;4970958;28;20165;-41
2021/12/02 07:19:06;;;;;;;3.10;1.60;;;16.80;58.40;16.80;99111.00;;;;4970084;28;20260;-41
2021/12/02 07:21:33;;;;;;;4.00;1.57;;;17.00;58.20;17.00;99127.00;;;;4968586;28;20204;-41
2021/12/02 07:23:59;;;;;;;7.27;1.90;;;17.30;58.10;17.20;99116.00;;;;4970173;28;20233;-42
2021/12/02 07:26:25;;;;;;;2.17;1.50;;;17.40;58.00;17.30;99121.00;;;;4970753;28;20173;-42
2021/12/02 07:28:50;;;;;;;5.80;1.80;;;17.50;57.90;17.40;99126.00;;;;4969305;28;20602;-41
2021/12/02 07:31:16;;;;;;;3.60;1.60;;;17.60;58.00;17.50;99119.00;;;;4970186;28;20196;-41
2021/12/02 07:33:47;;;;;;;5.70;1.80;;;17.60;58.20;17.60;99137.00;;;;4968090;28;20196;-41
2021/12/02 07:36:13;;;;;;;6.07;1.90;;;17.70;58.20;17.70;99138.00;;;;4970380;28;20157;-42
2021/12/02 07:38:39;;;;;;;7.33;2.00;;;17.60;58.30;17.80;99143.00;;;;4959160;28;20201;-41
2021/12/02 07:41:05;;;;;;;3.93;1.80;;;17.60;58.50;17.80;99141.00;;;;4961465;28;20177;-42
2021/12/02 07:43:36;;;;;;;4.83;1.60;;;17.60;58.30;17.80;99151.00;;;;4950138;28;20209;-42
2021/12/02 07:46:02;;;;;;;6.70;2.00;;;17.50;58.50;17.80;99160.00;;;;4950171;28;20268;-41
2021/12/02 07:48:28;;;;;;;4.33;1.93;;;17.50;58.40;17.80;99155.00;;;;4956819;28;20192;-41
2021/12/02 07:50:54;;;;;;;8.57;2.20;;;17.50;58.80;17.80;99162.00;;;;4969742;28;20182;-41
2021/12/02 07:53:20;;;;;;;8.23;2.10;;;17.40;58.80;17.80;99168.00;;;;4969407;28;20185;-41
2021/12/02 07:55:46;;;;;;;6.53;2.00;;;17.40;58.80;17.90;99167.00;;;;4969445;28;20793;-41
2021/12/02 07:58:11;;;;;;;8.77;2.07;;;17.40;58.80;17.90;99180.00;;;;4952186;28;20756;-41
2021/12/02 08:00:39;;;;;;;5.73;1.93;;;17.40;59.10;17.90;99174.00;;;;4969296;28;20180;-41
2021/12/02 08:03:08;;;;;;;5.60;1.93;;;17.30;59.20;17.90;99169.00;;;;4969662;28;20288;-40
2021/12/02 08:05:34;;;;;;;6.43;2.00;;;17.40;59.30;17.90;99177.00;;;;4969141;28;20284;-41
2021/12/02 08:08:00;;;;;;;6.13;1.80;;;17.40;59.80;17.90;99179.00;;;;4969491;28;20259;-42
2021/12/02 08:10:27;;;;;;;5.90;1.93;;;17.30;59.20;17.80;99186.00;;;;4974855;28;20173;-42
2021/12/02 08:12:52;;;;;;;5.70;1.97;;;17.30;59.20;17.80;99193.00;;;;4976194;28;20232;-41
2021/12/02 08:15:21;;;;;;;5.47;1.77;;;17.30;59.20;17.80;99190.00;;;;4968994;28;20640;-41
2021/12/02 08:17:47;;;;;;;6.43;1.90;;;17.30;59.20;17.80;99193.00;;;;4968189;28;20658;-42
2021/12/02 08:20:13;;;;;;;3.67;1.80;;;17.20;59.20;17.80;99202.00;;;;4969603;28;20188;-41
2021/12/02 08:22:39;;;;;;;7.23;2.20;;;17.20;59.30;17.80;99200.00;;;;4968920;28;20204;-40
2021/12/02 08:25:05;;;;;;;6.87;2.00;;;17.10;59.20;17.50;99211.00;;;;4969212;28;20208;-40
2021/12/02 08:27:31;;;;;;;3.67;1.60;;;17.10;59.30;17.50;99212.00;;;;4969011;28;20180;-40
2021/12/02 08:29:56;;;;;;;4.13;1.60;;;17.10;59.30;17.80;99208.00;;;;4969613;28;20192;-40
2021/12/02 08:32:22;;;;;;;4.60;1.73;;;17.00;59.20;17.70;99209.00;;;;4969099;28;20667;-40
2021/12/02 08:34:48;;;;;;;3.53;1.93;;;17.00;59.20;17.70;99227.00;;;;4969339;28;20185;-40
2021/12/02 08:37:14;;;;;;;4.00;1.70;;;17.00;59.20;17.70;99224.00;;;;4969310;28;20177;-40
2021/12/02 08:39:41;;;;;;;2.60;1.67;;;17.00;59.30;17.70;99231.00;;;;4969694;28;20575;-40
2021/12/02 08:42:09;;;;;;;3.23;1.67;;;16.90;59.40;17.60;99236.00;;;;4968826;28;20217;-42
2021/12/02 08:44:38;;;;;;;4.57;1.63;;;16.90;59.40;17.60;99231.00;;;;4968894;28;20196;-42
2021/12/02 08:47:04;;;;;;;3.17;1.67;;;16.80;59.40;17.60;99238.00;;;;4963145;28;20193;-42
2021/12/02 08:49:30;;;;;;;2.77;1.63;;;16.80;59.40;17.60;99243.00;;;;4949552;28;20644;-42
2021/12/02 08:51:55;;;;;;;2.40;1.70;;;16.80;59.50;17.60;99242.00;;;;4949506;28;20194;-41
2021/12/02 08:54:21;;;;;;;2.13;1.50;;;16.80;59.50;17.50;99251.00;;;;4949861;28;20181;-41
2021/12/02 08:56:47;;;;;;;2.77;1.70;;;16.70;59.50;17.50;99247.00;;;;4949481;28;20643;-42
2021/12/02 08:59:14;;;;;;;3.13;1.30;;;16.70;59.50;17.50;99243.00;;;;4949509;28;20190;-42
2021/12/02 09:01:40;;;;;;;1.87;1.60;;;16.70;59.60;17.50;99248.00;;;;4947574;29;20719;-41
2021/12/02 09:04:05;;;;;;;2.20;1.67;;;16.60;60.20;17.40;99251.00;;;;4953734;28;20197;-42
2021/12/02 09:06:31;;;;;;;5.53;1.50;;;16.60;59.60;17.40;99257.00;;;;4969170;28;20694;-42
2021/12/02 09:08:58;;;;;;;1.97;1.40;;;16.60;59.60;17.40;99252.00;;;;4968562;28;20443;-42
2021/12/02 09:11:26;;;;;;;1.90;1.50;;;16.60;59.60;17.40;99258.00;;;;4967756;28;20197;-41
2021/12/02 09:13:56;;;;;;;3.03;1.50;;;16.50;59.80;17.40;99266.00;;;;4968593;28;20176;-42
2021/12/02 09:16:23;;;;;;;1.80;1.50;;;16.50;59.60;17.30;99265.00;;;;4968829;28;20169;-41
2021/12/02 09:18:48;;;;;;;2.37;1.50;;;16.50;59.60;17.30;99276.00;;;;4968899;28;20612;-42
2021/12/02 09:21:14;;;;;;;2.73;1.40;;;16.40;59.70;17.30;99278.00;;;;4968491;28;20201;-42
2021/12/02 09:23:40;;;;;;;2.47;1.50;;;16.40;59.60;17.30;99276.00;;;;4968619;28;20200;-42
2021/12/02 09:26:06;;;;;;;2.07;1.40;;;16.40;60.40;17.20;99281.00;;;;4968203;28;20172;-40
2021/12/02 09:28:32;;;;;;;1.73;1.30;;;16.40;59.70;17.20;99275.00;;;;4968582;28;20173;-40
2021/12/02 09:30:57;;;;;;;2.47;1.40;;;16.30;59.70;17.20;99290.00;;;;4968243;28;20173;-41
2021/12/02 09:33:23;;;;;;;1.33;1.20;;;16.30;59.70;17.20;99293.00;;;;4968614;28;20639;-41
2021/12/02 09:35:49;;;;;;;1.73;1.50;;;16.30;59.70;17.10;99291.00;;;;4968053;28;20181;-41
2021/12/02 09:38:15;;;;;;;2.80;1.40;;;16.30;59.70;17.10;99287.00;;;;4968341;28;20251;-41
2021/12/02 09:40:41;;;;;;;1.90;1.20;;;16.30;59.80;17.10;99300.00;;;;4966850;28;20212;-41
2021/12/02 09:43:10;;;;;;;1.27;1.17;;;16.20;59.70;17.10;99311.00;;;;4968127;28;20485;-41
2021/12/02 09:45:37;;;;;;;1.77;1.40;;;16.20;59.70;17.10;99313.00;;;;4968636;28;20205;-41
2021/12/02 09:48:03;;;;;;;1.37;1.27;;;16.20;59.60;17.00;99309.00;;;;4971105;28;20192;-41
2021/12/02 09:50:36;;;;;;;1.40;1.30;;;16.10;59.50;17.00;99317.00;;;;4971778;28;20536;-41
2021/12/02 09:53:19;;;;;;;1.20;1.10;;;16.10;59.40;17.00;99311.00;;;;4970821;28;20189;-41
2021/12/02 09:58:19;;;;;;;1.40;1.30;;;16.10;59.50;17.00;99327.00;;;;4968283;28;20177;-41
2021/12/02 10:05:55;;;;;;;1.20;1.10;;;16.00;59.70;16.90;99314.00;;;;4966582;28;20212;-41
2021/12/02 10:08:24;;;;;;;1.50;1.30;;;16.00;59.70;16.90;99321.00;;;;4968521;28;20195;-41
2021/12/02 10:10:56;;;;;;;1.33;1.20;;;16.00;59.80;16.90;99328.00;;;;4968066;28;20177;-41
2021/12/02 10:16:10;;;;;;;1.37;1.23;;;15.90;59.60;16.80;99314.00;;;;4967658;28;20193;-41
2021/12/02 10:19:03;;;;;;;2.00;1.20;;;15.90;59.70;16.80;99316.00;;;;4968605;28;20172;-41
2021/12/02 10:24:16;;;;;;;1.20;1.10;;;15.80;59.60;16.80;99323.00;;;;4970526;28;20189;-41
2021/12/02 10:26:49;;;;;;;1.10;1.00;;;15.80;59.60;16.70;99310.00;;;;4971438;28;20351;-41
2021/12/02 10:29:33;;;;;;;1.40;1.17;;;15.80;59.60;16.70;99294.00;;;;4971483;28;20465;-41
2021/12/02 10:32:12;;;;;;;1.90;1.50;;;15.80;59.60;16.70;99319.00;;;;4971062;28;20223;-41
2021/12/02 10:34:55;;;;;;;1.80;1.20;;;15.80;59.60;16.70;99316.00;;;;4971765;28;20192;-40
2021/12/02 10:37:27;;;;;;;0.90;0.90;;;15.80;59.70;16.70;99326.00;;;;4971312;28;20177;-41
2021/12/02 10:39:59;;;;;;;1.63;1.30;;;15.70;59.90;16.70;99322.00;;;;4971221;28;20207;-41
2021/12/02 10:42:24;;;;;;;1.40;1.30;;;15.70;59.70;16.60;99318.00;;;;4970631;28;20287;-41
2021/12/02 10:44:51;;;;;;;1.20;1.10;;;15.70;59.60;16.60;99326.00;;;;4971467;28;20674;-40
2021/12/02 10:47:19;;;;;;;1.40;1.30;;;15.60;59.80;16.60;99327.00;;;;4970462;28;20216;-41
2021/12/02 10:49:56;;;;;;;1.30;1.20;;;15.60;59.60;16.60;99334.00;;;;4970866;28;20181;-41
2021/12/02 10:52:24;;;;;;;1.87;1.20;;;15.60;59.80;16.60;99337.00;;;;4969841;28;20224;-40
2021/12/02 10:54:59;;;;;;;3.07;1.30;;;15.60;59.70;16.60;99326.00;;;;4971430;28;20689;-40
2021/12/02 10:57:26;;;;;;;3.73;1.30;;;15.60;59.80;16.60;99317.00;;;;4971465;28;20164;-40
2021/12/02 11:00:05;;;;;;;5.63;1.53;;;15.70;59.50;16.60;99326.00;;;;4970477;28;20222;-40
2021/12/02 11:02:40;;;;;;;3.23;1.30;;;15.90;59.50;16.70;99336.00;;;;4966437;28;20732;-40
2021/12/02 11:05:19;;;;;;;5.80;1.70;;;16.10;59.50;16.80;99323.00;;;;4951567;28;20213;-40
2021/12/02 11:07:58;;;;;;;2.57;1.40;;;16.40;59.40;16.90;99320.00;;;;4951749;28;20185;-40
2021/12/02 11:10:25;;;;;;;3.63;1.30;;;16.60;59.00;17.00;99321.00;;;;4952373;28;20710;-42
2021/12/02 11:12:53;;;;;;;2.93;1.30;;;16.90;58.80;17.20;99319.00;;;;4970763;28;20267;-40
2021/12/02 11:15:24;;;;;;;4.67;1.53;;;17.20;58.30;17.30;99313.00;;;;4966303;28;20197;-40
2021/12/02 11:18:03;;;;;;;2.43;1.30;;;17.50;58.00;17.50;99314.00;;;;4951077;28;20170;-40
2021/12/02 11:20:31;;;;;;;2.73;1.20;;;17.70;57.60;17.70;99322.00;;;;4951159;28;20177;-39
2021/12/02 11:23:02;;;;;;;6.37;1.47;;;18.00;57.60;17.90;99326.00;;;;4967308;28;20201;-39
2021/12/02 11:25:29;;;;;;;3.23;1.13;;;18.20;57.40;18.10;99318.00;;;;4970149;28;20208;-39
2021/12/02 11:27:55;;;;;;;2.93;1.30;;;18.40;57.20;18.20;99327.00;;;;4971811;28;20529;-39
2021/12/02 11:30:25;;;;;;;3.27;1.50;;;18.60;57.00;18.40;99317.00;;;;4970370;28;20165;-39